createdAt,value
2023-02-03T00:00:25.153Z,1012.60
2023-02-03T00:01:24.800Z,1012.65
2023-02-03T00:02:24.845Z,1012.68
2023-02-03T00:03:24.871Z,1012.71
2023-02-03T00:04:24.776Z,1012.68
2023-02-03T00:05:24.748Z,1012.65
2023-02-03T00:06:24.748Z,1012.61
2023-02-03T00:07:24.728Z,1012.58
2023-02-03T00:08:24.722Z,1012.59
2023-02-03T00:09:24.714Z,1012.57
2023-02-03T00:10:25.010Z,1012.54
2023-02-03T00:11:24.668Z,1012.52
2023-02-03T00:12:24.657Z,1012.50
2023-02-03T00:13:24.642Z,1012.45
2023-02-03T00:14:24.677Z,1012.46
2023-02-03T00:15:24.616Z,1012.44
2023-02-03T00:16:24.659Z,1012.41
2023-02-03T00:17:24.592Z,1012.41
2023-02-03T00:18:24.575Z,1012.37
2023-02-03T00:19:24.561Z,1012.42
2023-02-03T00:20:25.044Z,1012.46
2023-02-03T00:21:24.538Z,1012.40
2023-02-03T00:22:24.545Z,1012.33
2023-02-03T00:23:24.506Z,1012.48
2023-02-03T00:24:24.502Z,1012.39
2023-02-03T00:25:24.495Z,1012.29
2023-02-03T00:26:24.476Z,1012.31
2023-02-03T00:27:24.459Z,1012.27
2023-02-03T00:28:24.441Z,1012.30
2023-02-03T00:29:24.425Z,1012.28
2023-02-03T00:30:24.910Z,1012.22
2023-02-03T00:31:24.569Z,1012.28
2023-02-03T00:32:24.578Z,1012.27
2023-02-03T00:33:24.378Z,1012.29
2023-02-03T00:34:24.374Z,1012.27
2023-02-03T00:35:24.380Z,1012.22
2023-02-03T00:36:24.340Z,1012.29
2023-02-03T00:37:24.337Z,1012.31
2023-02-03T00:38:24.315Z,1012.35
2023-02-03T00:39:24.298Z,1012.42
2023-02-03T00:40:24.742Z,1012.44
2023-02-03T00:41:24.273Z,1012.38
2023-02-03T00:42:24.264Z,1012.44
2023-02-03T00:43:24.243Z,1012.38
2023-02-03T00:44:24.239Z,1012.43
2023-02-03T00:45:24.236Z,1012.44
2023-02-03T00:46:24.236Z,1012.42
2023-02-03T00:47:24.190Z,1012.40
2023-02-03T00:48:24.180Z,1012.40
2023-02-03T00:49:24.164Z,1012.43
2023-02-03T00:50:24.638Z,1012.46
2023-02-03T00:51:24.146Z,1012.47
2023-02-03T00:52:24.131Z,1012.45
2023-02-03T00:53:24.115Z,1012.44
2023-02-03T00:54:24.103Z,1012.35
2023-02-03T00:55:24.100Z,1012.28
2023-02-03T00:56:24.082Z,1012.26
2023-02-03T00:57:24.057Z,1012.29
2023-02-03T00:58:24.044Z,1012.26
2023-02-03T00:59:24.037Z,1012.28
2023-02-03T01:00:24.524Z,1012.26
2023-02-03T01:01:24.048Z,1012.25
2023-02-03T01:02:24.123Z,1012.21
2023-02-03T01:03:24.009Z,1012.17
2023-02-03T01:04:23.966Z,1012.11
2023-02-03T01:05:23.968Z,1012.10
2023-02-03T01:06:23.947Z,1012.09
2023-02-03T01:07:23.926Z,1011.97
2023-02-03T01:08:23.917Z,1011.98
2023-02-03T01:09:23.902Z,1011.97
2023-02-03T01:10:24.156Z,1011.96
2023-02-03T01:11:23.882Z,1011.86
2023-02-03T01:12:23.865Z,1011.77
2023-02-03T01:13:23.845Z,1011.77
2023-02-03T01:14:23.834Z,1011.73
2023-02-03T01:15:23.841Z,1011.77
2023-02-03T01:16:23.828Z,1011.76
2023-02-03T01:17:23.817Z,1011.69
2023-02-03T01:18:23.856Z,1011.78
2023-02-03T01:19:23.775Z,1011.82
2023-02-03T01:20:23.855Z,1011.77
2023-02-03T01:21:23.739Z,1011.82
2023-02-03T01:22:23.730Z,1011.78
2023-02-03T01:23:23.717Z,1011.77
2023-02-03T01:24:23.705Z,1011.81
2023-02-03T01:25:23.712Z,1011.72
2023-02-03T01:26:23.686Z,1011.65
2023-02-03T01:27:23.670Z,1011.74
2023-02-03T01:28:23.650Z,1011.85
2023-02-03T01:29:23.641Z,1011.89
2023-02-03T01:30:23.710Z,1011.91
2023-02-03T01:31:23.711Z,1011.77
2023-02-03T01:32:23.599Z,1011.79
2023-02-03T01:33:23.588Z,1011.82
2023-02-03T01:34:23.591Z,1011.93
2023-02-03T01:35:23.559Z,1011.86
2023-02-03T01:36:23.564Z,1011.79
2023-02-03T01:37:23.546Z,1011.63
2023-02-03T01:38:23.528Z,1011.73
2023-02-03T01:39:23.513Z,1011.82
2023-02-03T01:40:23.629Z,1011.75
2023-02-03T01:41:23.505Z,1011.79
2023-02-03T01:42:23.468Z,1011.82
2023-02-03T01:43:23.455Z,1011.76
2023-02-03T01:44:23.441Z,1011.87
2023-02-03T01:45:23.424Z,1011.87
2023-02-03T01:46:23.457Z,1011.81
2023-02-03T01:47:23.415Z,1011.77
2023-02-03T01:48:23.397Z,1011.73
2023-02-03T01:49:23.372Z,1011.81
2023-02-03T01:50:23.402Z,1011.74
2023-02-03T01:51:23.363Z,1011.69
2023-02-03T01:52:23.336Z,1011.77
2023-02-03T01:53:23.324Z,1011.71
2023-02-03T01:54:23.309Z,1011.73
2023-02-03T01:55:23.309Z,1011.69
2023-02-03T01:56:23.297Z,1011.67
2023-02-03T01:57:23.266Z,1011.62
2023-02-03T01:58:23.259Z,1011.55
2023-02-03T01:59:23.244Z,1011.57
2023-02-03T02:00:23.256Z,1011.57
2023-02-03T02:01:23.316Z,1011.59
2023-02-03T02:02:23.316Z,1011.66
2023-02-03T02:03:23.218Z,1011.65
2023-02-03T02:04:23.178Z,1011.54
2023-02-03T02:05:23.171Z,1011.61
2023-02-03T02:06:23.191Z,1011.62
2023-02-03T02:07:23.155Z,1011.59
2023-02-03T02:08:23.152Z,1011.54
2023-02-03T02:09:23.113Z,1011.55
2023-02-03T02:10:23.096Z,1011.52
2023-02-03T02:11:23.112Z,1011.45
2023-02-03T02:12:23.071Z,1011.46
2023-02-03T02:13:23.052Z,1011.46
2023-02-03T02:14:23.048Z,1011.42
2023-02-03T02:15:23.029Z,1011.40
2023-02-03T02:16:23.041Z,1011.34
2023-02-03T02:17:23.001Z,1011.36
2023-02-03T02:18:23.000Z,1011.38
2023-02-03T02:19:22.974Z,1011.37
2023-02-03T02:20:23.060Z,1011.32
2023-02-03T02:21:22.966Z,1011.40
2023-02-03T02:22:22.961Z,1011.39
2023-02-03T02:23:22.927Z,1011.42
2023-02-03T02:24:22.913Z,1011.46
2023-02-03T02:25:22.900Z,1011.46
2023-02-03T02:26:22.901Z,1011.44
2023-02-03T02:27:22.872Z,1011.46
2023-02-03T02:28:22.883Z,1011.45
2023-02-03T02:29:22.847Z,1011.43
2023-02-03T02:30:22.855Z,1011.50
2023-02-03T02:31:23.041Z,1011.42
2023-02-03T02:32:22.820Z,1011.46
2023-02-03T02:33:22.797Z,1011.51
2023-02-03T02:34:22.785Z,1011.49
2023-02-03T02:35:22.787Z,1011.58
2023-02-03T02:36:22.799Z,1011.48
2023-02-03T02:37:22.758Z,1011.57
2023-02-03T02:38:22.778Z,1011.55
2023-02-03T02:39:22.717Z,1011.55
2023-02-03T02:40:22.739Z,1011.52
2023-02-03T02:41:22.700Z,1011.45
2023-02-03T02:42:22.702Z,1011.48
2023-02-03T02:43:22.701Z,1011.51
2023-02-03T02:44:22.701Z,1011.50
2023-02-03T02:45:22.643Z,1011.65
2023-02-03T02:46:22.713Z,1011.63
2023-02-03T02:47:22.663Z,1011.71
2023-02-03T02:48:22.615Z,1011.70
2023-02-03T02:49:22.587Z,1011.67
2023-02-03T02:50:22.566Z,1011.69
2023-02-03T02:51:22.555Z,1011.77
2023-02-03T02:52:22.563Z,1011.73
2023-02-03T02:53:22.529Z,1011.78
2023-02-03T02:54:22.533Z,1011.79
2023-02-03T02:55:22.501Z,1011.83
2023-02-03T02:56:22.490Z,1011.79
2023-02-03T02:57:22.509Z,1011.86
2023-02-03T02:58:22.471Z,1011.80
2023-02-03T02:59:22.458Z,1011.76
2023-02-03T03:00:22.434Z,1011.82
2023-02-03T03:01:22.537Z,1011.85
2023-02-03T03:02:23.503Z,1011.83
2023-02-03T03:03:22.397Z,1011.85
2023-02-03T03:04:22.460Z,1011.86
2023-02-03T03:05:22.378Z,1011.83
2023-02-03T03:06:22.360Z,1011.79
2023-02-03T03:07:22.368Z,1011.85
2023-02-03T03:08:22.335Z,1011.82
2023-02-03T03:09:22.315Z,1011.80
2023-02-03T03:10:22.326Z,1011.76
2023-02-03T03:11:22.294Z,1011.61
2023-02-03T03:12:22.296Z,1011.62
2023-02-03T03:13:22.269Z,1011.66
2023-02-03T03:14:22.251Z,1011.62
2023-02-03T03:15:22.342Z,1011.57
2023-02-03T03:16:22.341Z,1011.61
2023-02-03T03:17:22.232Z,1011.59
2023-02-03T03:18:22.199Z,1011.62
2023-02-03T03:19:22.190Z,1011.54
2023-02-03T03:20:22.171Z,1011.60
2023-02-03T03:21:22.160Z,1011.64
2023-02-03T03:22:22.161Z,1011.62
2023-02-03T03:23:22.137Z,1011.61
2023-02-03T03:24:22.119Z,1011.62
2023-02-03T03:25:22.105Z,1011.51
2023-02-03T03:26:22.114Z,1011.54
2023-02-03T03:27:22.100Z,1011.52
2023-02-03T03:28:22.066Z,1011.55
2023-02-03T03:29:22.058Z,1011.58
2023-02-03T03:30:22.047Z,1011.55
2023-02-03T03:31:22.165Z,1011.64
2023-02-03T03:32:22.033Z,1011.56
2023-02-03T03:33:22.002Z,1011.58
2023-02-03T03:34:21.990Z,1011.62
2023-02-03T03:35:21.988Z,1011.62
2023-02-03T03:36:21.962Z,1011.67
2023-02-03T03:37:21.960Z,1011.67
2023-02-03T03:38:21.934Z,1011.64
2023-02-03T03:39:21.920Z,1011.60
2023-02-03T03:40:21.905Z,1011.50
2023-02-03T03:41:21.896Z,1011.42
2023-02-03T03:42:21.924Z,1011.44
2023-02-03T03:43:21.867Z,1011.39
2023-02-03T03:44:21.852Z,1011.38
2023-02-03T03:45:21.840Z,1011.31
2023-02-03T03:46:21.897Z,1011.31
2023-02-03T03:47:21.845Z,1011.35
2023-02-03T03:48:21.799Z,1011.34
2023-02-03T03:49:21.787Z,1011.38
2023-02-03T03:50:21.773Z,1011.31
2023-02-03T03:51:21.765Z,1011.25
2023-02-03T03:52:21.775Z,1011.26
2023-02-03T03:53:21.740Z,1011.30
2023-02-03T03:54:21.726Z,1011.36
2023-02-03T03:55:21.710Z,1011.42
2023-02-03T03:56:21.693Z,1011.54
2023-02-03T03:57:21.683Z,1011.59
2023-02-03T03:58:21.707Z,1011.67
2023-02-03T03:59:21.658Z,1011.55
2023-02-03T04:00:21.645Z,1011.57
2023-02-03T04:01:21.735Z,1011.57
2023-02-03T04:02:21.694Z,1011.46
2023-02-03T04:03:21.695Z,1011.39
2023-02-03T04:04:21.620Z,1011.36
2023-02-03T04:05:21.574Z,1011.34
2023-02-03T04:06:21.567Z,1011.30
2023-02-03T04:07:21.552Z,1011.35
2023-02-03T04:08:21.553Z,1011.25
2023-02-03T04:09:21.529Z,1011.27
2023-02-03T04:10:21.507Z,1011.15
2023-02-03T04:11:21.497Z,1011.11
2023-02-03T04:12:21.485Z,1011.14
2023-02-03T04:13:21.489Z,1011.14
2023-02-03T04:14:21.478Z,1011.09
2023-02-03T04:15:21.451Z,1011.16
2023-02-03T04:16:21.486Z,1011.20
2023-02-03T04:17:21.418Z,1011.35
2023-02-03T04:18:21.429Z,1011.40
2023-02-03T04:19:21.398Z,1011.50
2023-02-03T04:20:21.380Z,1011.63
2023-02-03T04:21:21.363Z,1011.67
2023-02-03T04:22:21.353Z,1011.65
2023-02-03T04:23:21.365Z,1011.69
2023-02-03T04:24:21.339Z,1011.66
2023-02-03T04:25:21.322Z,1011.54
2023-02-03T04:26:21.299Z,1011.52
2023-02-03T04:27:21.285Z,1011.49
2023-02-03T04:28:21.291Z,1011.56
2023-02-03T04:29:21.265Z,1011.47
2023-02-03T04:30:21.278Z,1011.48
2023-02-03T04:31:21.409Z,1011.37
2023-02-03T04:32:21.222Z,1011.36
2023-02-03T04:33:21.257Z,1011.43
2023-02-03T04:34:21.200Z,1011.40
2023-02-03T04:35:21.180Z,1011.41
2023-02-03T04:36:21.172Z,1011.42
2023-02-03T04:37:21.176Z,1011.34
2023-02-03T04:38:21.169Z,1011.30
2023-02-03T04:39:21.134Z,1011.38
2023-02-03T04:40:21.116Z,1011.44
2023-02-03T04:41:21.106Z,1011.42
2023-02-03T04:42:21.086Z,1011.56
2023-02-03T04:43:21.078Z,1011.59
2023-02-03T04:44:21.077Z,1011.63
2023-02-03T04:45:21.055Z,1011.62
2023-02-03T04:46:21.056Z,1011.64
2023-02-03T04:47:21.026Z,1011.71
2023-02-03T04:48:21.034Z,1011.69
2023-02-03T04:49:21.010Z,1011.70
2023-02-03T04:50:20.987Z,1011.67
2023-02-03T04:51:20.992Z,1011.66
2023-02-03T04:52:20.962Z,1011.66
2023-02-03T04:53:20.949Z,1011.66
2023-02-03T04:54:20.966Z,1011.69
2023-02-03T04:55:20.925Z,1011.73
2023-02-03T04:56:20.908Z,1011.65
2023-02-03T04:57:20.897Z,1011.55
2023-02-03T04:58:20.878Z,1011.45
2023-02-03T04:59:20.882Z,1011.50
2023-02-03T05:00:20.853Z,1011.49
2023-02-03T05:01:20.899Z,1011.44
2023-02-03T05:02:20.847Z,1011.55
2023-02-03T05:03:20.847Z,1011.41
2023-02-03T05:04:20.827Z,1011.36
2023-02-03T05:05:20.815Z,1011.37
2023-02-03T05:06:20.776Z,1011.32
2023-02-03T05:07:20.764Z,1011.37
2023-02-03T05:08:20.747Z,1011.40
2023-02-03T05:09:20.755Z,1011.46
2023-02-03T05:10:20.717Z,1011.43
2023-02-03T05:11:20.706Z,1011.48
2023-02-03T05:12:20.694Z,1011.41
2023-02-03T05:13:20.683Z,1011.37
2023-02-03T05:14:20.686Z,1011.40
2023-02-03T05:15:20.656Z,1011.36
2023-02-03T05:16:20.697Z,1011.39
2023-02-03T05:17:20.629Z,1011.47
2023-02-03T05:18:20.659Z,1011.38
2023-02-03T05:19:20.620Z,1011.33
2023-02-03T05:20:20.589Z,1011.34
2023-02-03T05:21:20.584Z,1011.34
2023-02-03T05:22:20.559Z,1011.32
2023-02-03T05:23:20.553Z,1011.29
2023-02-03T05:24:20.548Z,1011.32
2023-02-03T05:25:20.565Z,1011.21
2023-02-03T05:26:20.513Z,1011.24
2023-02-03T05:27:20.497Z,1011.30
2023-02-03T05:28:20.482Z,1011.25
2023-02-03T05:29:20.488Z,1011.26
2023-02-03T05:30:20.462Z,1011.28
2023-02-03T05:31:20.614Z,1011.22
2023-02-03T05:32:20.428Z,1011.25
2023-02-03T05:33:20.420Z,1011.24
2023-02-03T05:34:20.439Z,1011.16
2023-02-03T05:35:20.402Z,1011.03
2023-02-03T05:36:20.376Z,1011.00
2023-02-03T05:37:20.364Z,1010.96
2023-02-03T05:38:20.352Z,1010.95
2023-02-03T05:39:20.374Z,1011.06
2023-02-03T05:40:20.328Z,1011.00
2023-02-03T05:41:20.313Z,1010.95
2023-02-03T05:42:20.297Z,1010.98
2023-02-03T05:43:20.288Z,1011.11
2023-02-03T05:44:20.285Z,1011.12
2023-02-03T05:45:20.264Z,1011.14
2023-02-03T05:46:20.251Z,1011.20
2023-02-03T05:47:20.241Z,1011.03
2023-02-03T05:48:20.222Z,1010.98
2023-02-03T05:49:20.235Z,1010.99
2023-02-03T05:50:20.215Z,1010.99
2023-02-03T05:51:20.195Z,1010.97
2023-02-03T05:52:20.168Z,1010.90
2023-02-03T05:53:20.156Z,1010.96
2023-02-03T05:54:20.153Z,1010.98
2023-02-03T05:55:20.135Z,1010.95
2023-02-03T05:56:20.121Z,1010.95
2023-02-03T05:57:20.106Z,1010.98
2023-02-03T05:58:20.092Z,1011.02
2023-02-03T05:59:20.112Z,1011.09
2023-02-03T06:00:20.065Z,1011.04
2023-02-03T06:01:20.065Z,1011.02
2023-02-03T06:02:20.040Z,1010.96
2023-02-03T06:03:20.080Z,1010.95
2023-02-03T06:04:20.051Z,1010.91
2023-02-03T06:05:20.018Z,1010.96
2023-02-03T06:06:20.001Z,1011.10
2023-02-03T06:07:19.990Z,1011.06
2023-02-03T06:08:19.955Z,1011.06
2023-02-03T06:09:19.943Z,1011.05
2023-02-03T06:10:19.949Z,1010.99
2023-02-03T06:11:19.928Z,1011.10
2023-02-03T06:12:19.903Z,1011.08
2023-02-03T06:13:19.894Z,1011.06
2023-02-03T06:14:19.882Z,1011.03
2023-02-03T06:15:19.883Z,1010.98
2023-02-03T06:16:20.017Z,1010.96
2023-02-03T06:17:19.844Z,1011.00
2023-02-03T06:18:19.829Z,1011.02
2023-02-03T06:19:19.815Z,1010.96
2023-02-03T06:20:19.818Z,1011.01
2023-02-03T06:21:19.790Z,1011.04
2023-02-03T06:22:19.797Z,1010.96
2023-02-03T06:23:19.762Z,1010.93
2023-02-03T06:24:19.746Z,1010.92
2023-02-03T06:25:19.748Z,1010.87
2023-02-03T06:26:19.725Z,1010.89
2023-02-03T06:27:19.709Z,1010.85
2023-02-03T06:28:19.817Z,1010.82
2023-02-03T06:29:19.687Z,1010.80
2023-02-03T06:30:19.687Z,1010.69
2023-02-03T06:31:19.769Z,1010.69
2023-02-03T06:32:19.651Z,1010.66
2023-02-03T06:33:19.641Z,1010.71
2023-02-03T06:34:19.639Z,1010.77
2023-02-03T06:35:19.627Z,1010.87
2023-02-03T06:36:19.594Z,1010.82
2023-02-03T06:37:19.579Z,1010.87
2023-02-03T06:38:19.581Z,1010.86
2023-02-03T06:39:19.551Z,1010.91
2023-02-03T06:40:19.554Z,1010.93
2023-02-03T06:41:19.522Z,1010.97
2023-02-03T06:42:19.509Z,1010.91
2023-02-03T06:43:19.502Z,1010.88
2023-02-03T06:44:19.481Z,1010.95
2023-02-03T06:45:19.512Z,1010.94
2023-02-03T06:46:19.520Z,1010.99
2023-02-03T06:47:19.467Z,1011.02
2023-02-03T06:48:19.434Z,1011.07
2023-02-03T06:49:19.418Z,1011.10
2023-02-03T06:50:19.417Z,1011.07
2023-02-03T06:51:19.393Z,1011.15
2023-02-03T06:52:19.383Z,1011.20
2023-02-03T06:53:19.397Z,1011.18
2023-02-03T06:54:19.469Z,1011.26
2023-02-03T06:55:19.409Z,1011.27
2023-02-03T06:56:19.326Z,1011.29
2023-02-03T06:57:19.347Z,1011.36
2023-02-03T06:58:19.302Z,1011.22
2023-02-03T06:59:19.309Z,1011.16
2023-02-03T07:00:19.588Z,1011.21
2023-02-03T07:01:19.312Z,1011.22
2023-02-03T07:02:19.298Z,1011.21
2023-02-03T07:03:19.237Z,1011.17
2023-02-03T07:04:19.231Z,1011.24
2023-02-03T07:05:19.217Z,1011.25
2023-02-03T07:06:19.206Z,1011.19
2023-02-03T07:07:19.180Z,1011.26
2023-02-03T07:08:19.164Z,1011.15
2023-02-03T07:09:19.154Z,1011.11
2023-02-03T07:10:19.173Z,1011.09
2023-02-03T07:11:19.144Z,1011.17
2023-02-03T07:12:19.112Z,1011.18
2023-02-03T07:13:19.107Z,1011.20
2023-02-03T07:14:19.088Z,1011.23
2023-02-03T07:15:19.084Z,1011.24
2023-02-03T07:16:19.119Z,1011.24
2023-02-03T07:17:19.054Z,1011.22
2023-02-03T07:18:35.997Z,1011.19
2023-02-03T07:19:19.029Z,1011.10
2023-02-03T07:20:19.017Z,1011.09
2023-02-03T07:21:19.021Z,1011.03
2023-02-03T07:22:18.982Z,1011.02
2023-02-03T07:23:18.973Z,1011.03
2023-02-03T07:24:18.968Z,1010.96
2023-02-03T07:25:18.946Z,1011.01
2023-02-03T07:26:19.073Z,1011.00
2023-02-03T07:27:18.926Z,1011.08
2023-02-03T07:28:19.015Z,1011.10
2023-02-03T07:29:18.893Z,1011.08
2023-02-03T07:30:18.885Z,1011.01
2023-02-03T07:31:19.099Z,1011.08
2023-02-03T07:32:18.855Z,1011.06
2023-02-03T07:33:18.843Z,1011.08
2023-02-03T07:34:18.844Z,1011.04
2023-02-03T07:35:18.840Z,1011.06
2023-02-03T07:36:18.817Z,1011.13
2023-02-03T07:37:18.786Z,1011.19
2023-02-03T07:38:18.774Z,1011.15
2023-02-03T07:39:18.759Z,1011.17
2023-02-03T07:40:18.766Z,1011.25
2023-02-03T07:41:18.748Z,1011.35
2023-02-03T07:42:18.741Z,1011.39
2023-02-03T07:43:18.718Z,1011.31
2023-02-03T07:44:18.699Z,1011.18
2023-02-03T07:45:18.684Z,1011.18
2023-02-03T07:46:18.773Z,1011.19
2023-02-03T07:47:18.697Z,1011.17
2023-02-03T07:48:18.661Z,1011.35
2023-02-03T07:49:18.627Z,1011.25
2023-02-03T07:50:18.624Z,1011.23
2023-02-03T07:51:18.620Z,1011.15
2023-02-03T07:52:19.635Z,1011.18
2023-02-03T07:53:18.578Z,1011.10
2023-02-03T07:54:18.576Z,1011.07
2023-02-03T07:55:18.547Z,1011.13
2023-02-03T07:56:18.558Z,1011.26
2023-02-03T07:57:18.533Z,1011.29
2023-02-03T07:58:18.529Z,1011.26
2023-02-03T07:59:18.506Z,1011.23
2023-02-03T08:00:18.486Z,1011.27
2023-02-03T08:01:18.569Z,1011.35
2023-02-03T08:02:18.472Z,1011.31
2023-02-03T08:03:18.449Z,1011.25
2023-02-03T08:04:18.444Z,1011.19
2023-02-03T08:05:18.487Z,1011.24
2023-02-03T08:06:18.421Z,1011.29
2023-02-03T08:07:18.391Z,1011.40
2023-02-03T08:08:18.380Z,1011.42
2023-02-03T08:09:18.385Z,1011.43
2023-02-03T08:10:18.356Z,1011.35
2023-02-03T08:11:18.347Z,1011.23
2023-02-03T08:12:18.351Z,1011.21
2023-02-03T08:13:18.309Z,1011.10
2023-02-03T08:14:18.321Z,1011.15
2023-02-03T08:15:18.286Z,1011.16
2023-02-03T08:16:18.366Z,1011.23
2023-02-03T08:17:18.275Z,1011.36
2023-02-03T08:18:18.252Z,1011.29
2023-02-03T08:19:18.232Z,1011.24
2023-02-03T08:20:18.224Z,1011.33
2023-02-03T08:21:18.205Z,1011.34
2023-02-03T08:22:18.234Z,1011.25
2023-02-03T08:23:18.175Z,1011.17
2023-02-03T08:24:18.165Z,1011.17
2023-02-03T08:25:18.152Z,1011.15
2023-02-03T08:26:18.147Z,1011.12
2023-02-03T08:27:18.139Z,1011.23
2023-02-03T08:28:18.230Z,1011.27
2023-02-03T08:29:18.126Z,1011.24
2023-02-03T08:30:18.113Z,1011.21
2023-02-03T08:31:18.231Z,1011.15
2023-02-03T08:32:18.147Z,1011.15
2023-02-03T08:33:18.049Z,1011.25
2023-02-03T08:34:18.036Z,1011.17
2023-02-03T08:35:18.037Z,1011.16
2023-02-03T08:36:18.007Z,1011.15
2023-02-03T08:37:18.013Z,1011.03
2023-02-03T08:38:17.981Z,1011.05
2023-02-03T08:39:17.972Z,1011.05
2023-02-03T08:40:17.975Z,1011.15
2023-02-03T08:41:17.943Z,1011.18
2023-02-03T08:42:17.940Z,1011.15
2023-02-03T08:43:17.911Z,1011.28
2023-02-03T08:44:17.904Z,1011.27
2023-02-03T08:45:17.885Z,1011.28
2023-02-03T08:46:17.917Z,1011.21
2023-02-03T08:47:17.882Z,1011.19
2023-02-03T08:48:17.856Z,1011.14
2023-02-03T08:49:17.843Z,1011.21
2023-02-03T08:50:17.824Z,1011.12
2023-02-03T08:51:17.805Z,1011.06
2023-02-03T08:52:19.128Z,1011.01
2023-02-03T08:53:17.780Z,1011.14
2023-02-03T08:54:17.771Z,1011.15
2023-02-03T08:55:17.751Z,1011.19
2023-02-03T08:56:17.756Z,1011.26
2023-02-03T08:57:17.758Z,1011.20
2023-02-03T08:58:17.723Z,1011.17
2023-02-03T08:59:17.722Z,1011.15
2023-02-03T09:00:17.697Z,1011.15
2023-02-03T09:01:17.711Z,1011.11
2023-02-03T09:02:17.701Z,1011.05
2023-02-03T09:03:17.660Z,1010.93
2023-02-03T09:04:17.636Z,1010.95
2023-02-03T09:05:17.619Z,1010.91
2023-02-03T09:06:17.619Z,1010.94
2023-02-03T09:07:17.609Z,1010.90
2023-02-03T09:08:17.588Z,1010.85
2023-02-03T09:09:17.583Z,1010.85
2023-02-03T09:10:17.561Z,1010.83
2023-02-03T09:11:17.551Z,1010.98
2023-02-03T09:12:17.548Z,1010.84
2023-02-03T09:13:17.521Z,1010.83
2023-02-03T09:14:17.503Z,1010.79
2023-02-03T09:15:17.493Z,1010.92
2023-02-03T09:16:17.591Z,1010.95
2023-02-03T09:17:17.484Z,1011.00
2023-02-03T09:18:17.472Z,1011.00
2023-02-03T09:19:17.444Z,1010.95
2023-02-03T09:20:17.589Z,1010.94
2023-02-03T09:21:32.067Z,1011.07
2023-02-03T09:22:17.466Z,1011.09
2023-02-03T09:23:17.390Z,1011.07
2023-02-03T09:24:17.371Z,1011.11
2023-02-03T09:25:17.361Z,1011.13
2023-02-03T09:26:17.346Z,1011.13
2023-02-03T09:27:17.336Z,1011.18
2023-02-03T09:28:17.421Z,1011.23
2023-02-03T09:29:17.311Z,1011.16
2023-02-03T09:30:17.312Z,1011.23
2023-02-03T09:31:17.375Z,1011.30
2023-02-03T09:32:17.266Z,1011.22
2023-02-03T09:33:17.267Z,1011.19
2023-02-03T09:34:17.262Z,1011.10
2023-02-03T09:35:17.227Z,1010.97
2023-02-03T09:36:17.215Z,1010.93
2023-02-03T09:37:17.197Z,1010.96
2023-02-03T09:38:17.213Z,1010.85
2023-02-03T09:39:17.174Z,1010.87
2023-02-03T09:40:17.159Z,1011.00
2023-02-03T09:41:17.145Z,1010.95
2023-02-03T09:42:17.142Z,1010.90
2023-02-03T09:43:17.127Z,1010.97
2023-02-03T09:44:17.104Z,1010.97
2023-02-03T09:45:17.088Z,1010.92
2023-02-03T09:46:17.181Z,1010.92
2023-02-03T09:47:17.091Z,1010.83
2023-02-03T09:48:17.072Z,1010.75
2023-02-03T09:49:17.046Z,1010.77
2023-02-03T09:50:17.050Z,1010.73
2023-02-03T09:51:17.014Z,1010.57
2023-02-03T09:52:16.998Z,1010.70
2023-02-03T09:53:16.997Z,1010.71
2023-02-03T09:54:16.978Z,1010.68
2023-02-03T09:55:16.984Z,1010.67
2023-02-03T09:56:16.956Z,1010.66
2023-02-03T09:57:16.933Z,1010.65
2023-02-03T09:58:16.953Z,1010.70
2023-02-03T09:59:16.910Z,1010.51
2023-02-03T10:00:16.901Z,1010.52
2023-02-03T10:01:16.906Z,1010.57
2023-02-03T10:02:18.601Z,1010.61
2023-02-03T10:03:16.868Z,1010.49
2023-02-03T10:04:16.853Z,1010.65
2023-02-03T10:05:16.833Z,1010.58
2023-02-03T10:06:16.852Z,1010.71
2023-02-03T10:07:16.812Z,1010.52
2023-02-03T10:08:16.811Z,1010.70
2023-02-03T10:09:16.781Z,1010.58
2023-02-03T10:10:16.783Z,1010.61
2023-02-03T10:11:16.752Z,1010.57
2023-02-03T10:12:16.752Z,1010.62
2023-02-03T10:13:16.746Z,1010.52
2023-02-03T10:14:16.716Z,1010.55
2023-02-03T10:15:16.697Z,1010.52
2023-02-03T10:16:16.810Z,1010.51
2023-02-03T10:17:16.672Z,1010.56
2023-02-03T10:18:16.693Z,1010.58
2023-02-03T10:19:16.654Z,1010.66
2023-02-03T10:20:16.634Z,1010.56
2023-02-03T10:21:16.636Z,1010.62
2023-02-03T10:22:16.647Z,1010.60
2023-02-03T10:23:16.611Z,1010.59
2023-02-03T10:24:16.581Z,1010.56
2023-02-03T10:25:16.569Z,1010.48
2023-02-03T10:26:16.558Z,1010.60
2023-02-03T10:27:16.549Z,1010.46
2023-02-03T10:28:16.618Z,1010.40
2023-02-03T10:29:16.520Z,1010.45
2023-02-03T10:30:16.511Z,1010.39
2023-02-03T10:31:16.610Z,1010.49
2023-02-03T10:32:16.517Z,1010.41
2023-02-03T10:33:16.501Z,1010.45
2023-02-03T10:34:16.482Z,1010.50
2023-02-03T10:35:16.443Z,1010.53
2023-02-03T10:36:16.428Z,1010.59
2023-02-03T10:37:16.412Z,1010.60
2023-02-03T10:38:16.441Z,1010.64
2023-02-03T10:39:16.387Z,1010.67
2023-02-03T10:40:16.390Z,1010.67
2023-02-03T10:41:16.409Z,1010.62
2023-02-03T10:42:16.378Z,1010.65
2023-02-03T10:43:16.363Z,1010.64
2023-02-03T10:44:16.326Z,1010.66
2023-02-03T10:45:16.312Z,1010.57
2023-02-03T10:46:16.349Z,1010.58
2023-02-03T10:47:16.284Z,1010.70
2023-02-03T10:48:16.271Z,1010.71
2023-02-03T10:49:16.284Z,1010.61
2023-02-03T10:50:16.248Z,1010.54
2023-02-03T10:51:16.235Z,1010.56
2023-02-03T10:52:16.220Z,1010.60
2023-02-03T10:53:16.222Z,1010.62
2023-02-03T10:54:16.235Z,1010.62
2023-02-03T10:55:16.190Z,1010.55
2023-02-03T10:56:16.222Z,1010.53
2023-02-03T10:57:16.156Z,1010.62
2023-02-03T10:58:16.157Z,1010.42
2023-02-03T10:59:16.151Z,1010.42
2023-02-03T11:00:16.123Z,1010.36
2023-02-03T11:01:16.214Z,1010.34
2023-02-03T11:02:16.174Z,1010.27
2023-02-03T11:03:16.076Z,1010.27
2023-02-03T11:04:16.086Z,1010.27
2023-02-03T11:05:16.053Z,1010.10
2023-02-03T11:06:16.048Z,1010.23
2023-02-03T11:07:16.026Z,1010.13
2023-02-03T11:08:16.042Z,1010.19
2023-02-03T11:09:16.010Z,1010.10
2023-02-03T11:10:16.016Z,1010.09
2023-02-03T11:11:15.981Z,1010.14
2023-02-03T11:12:15.970Z,1010.19
2023-02-03T11:13:15.950Z,1010.09
2023-02-03T11:14:15.959Z,1010.08
2023-02-03T11:15:15.919Z,1010.12
2023-02-03T11:16:15.971Z,1010.02
2023-02-03T11:17:15.895Z,1010.04
2023-02-03T11:18:15.879Z,1010.05
2023-02-03T11:19:15.884Z,1010.03
2023-02-03T11:20:15.862Z,1010.02
2023-02-03T11:21:15.849Z,1010.09
2023-02-03T11:22:15.826Z,1010.18
2023-02-03T11:23:15.811Z,1010.18
2023-02-03T11:24:15.813Z,1010.15
2023-02-03T11:25:15.796Z,1010.18
2023-02-03T11:26:15.793Z,1010.27
2023-02-03T11:27:15.757Z,1010.27
2023-02-03T11:28:15.873Z,1010.24
2023-02-03T11:29:15.755Z,1010.13
2023-02-03T11:30:15.722Z,1010.19
2023-02-03T11:31:15.769Z,1010.21
2023-02-03T11:32:15.693Z,1010.16
2023-02-03T11:33:15.689Z,1010.27
2023-02-03T11:34:15.684Z,1010.31
2023-02-03T11:35:15.655Z,1010.34
2023-02-03T11:36:15.636Z,1010.33
2023-02-03T11:37:15.618Z,1010.36
2023-02-03T11:38:15.636Z,1010.34
2023-02-03T11:39:15.609Z,1010.39
2023-02-03T11:40:15.578Z,1010.38
2023-02-03T11:41:15.568Z,1010.39
2023-02-03T11:42:15.579Z,1010.33
2023-02-03T11:43:15.544Z,1010.40
2023-02-03T11:44:15.542Z,1010.37
2023-02-03T11:45:15.531Z,1010.42
2023-02-03T11:46:15.573Z,1010.48
2023-02-03T11:47:15.490Z,1010.32
2023-02-03T11:48:15.473Z,1010.39
2023-02-03T11:49:15.460Z,1010.33
2023-02-03T11:50:15.466Z,1010.31
2023-02-03T11:51:15.430Z,1010.27
2023-02-03T11:52:15.419Z,1010.13
2023-02-03T11:53:15.418Z,1010.14
2023-02-03T11:54:15.396Z,1010.05
2023-02-03T11:55:15.398Z,1010.04
2023-02-03T11:56:15.365Z,1010.04
2023-02-03T11:57:15.348Z,1009.99
2023-02-03T11:58:15.356Z,1009.96
2023-02-03T11:59:15.327Z,1009.95
2023-02-03T12:00:15.319Z,1010.13
2023-02-03T12:01:15.294Z,1009.93
2023-02-03T12:02:15.286Z,1009.87
2023-02-03T12:03:15.381Z,1009.97
2023-02-03T12:04:15.337Z,1010.03
2023-02-03T12:05:15.264Z,1010.00